Time;durP1;ratioP1;P1;durP2;ratioP2;P2;SDS_P1;SDS_P2;PMS_P1;PMS_P2;Temp;Humidity;BMP_temperature;BMP_pressure;BME280_temperature;BME280_humidity;BME280_pressure;Samples;Min_cycle;Max_cycle;Signal;HPM_P1;HPM_P2
2021/11/02 00:00:21;;;;;;;;;;;9.20;99.20;;;;;;5040127;28;19964;-71
2021/11/02 00:02:47;;;;;;;;;;;9.20;99.20;;;;;;5022677;28;19917;-71
2021/11/02 00:05:13;;;;;;;;;;;9.20;99.10;;;;;;5039867;28;19917;-71
2021/11/02 00:07:39;;;;;;;;;;;9.20;99.20;;;;;;5038538;28;19971;-71
2021/11/02 00:10:05;;;;;;;;;;;9.20;99.10;;;;;;5022720;28;19912;-71
2021/11/02 00:12:31;;;;;;;;;;;9.10;99.10;;;;;;5039034;28;19913;-71
2021/11/02 00:14:57;;;;;;;;;;;9.10;99.10;;;;;;5039883;28;19962;-71
2021/11/02 00:17:25;;;;;;;;;;;9.00;99.10;;;;;;5039044;28;19928;-71
2021/11/02 00:19:56;;;;;;;;;;;8.90;99.20;;;;;;5045029;28;19916;-71
2021/11/02 00:22:23;;;;;;;;;;;8.90;99.30;;;;;;5045439;28;20066;-71
2021/11/02 00:27:21;;;;;;;;;;;8.90;99.20;;;;;;5041091;28;20380;-71
2021/11/02 00:29:47;;;;;;;;;;;8.80;99.40;;;;;;5023165;28;20413;-71
2021/11/02 00:32:12;;;;;;;;;;;8.80;99.50;;;;;;5023448;28;19951;-71
2021/11/02 00:34:37;;;;;;;;;;;8.80;99.50;;;;;;5039004;28;19928;-71
2021/11/02 00:37:03;;;;;;;;;;;8.80;99.30;;;;;;5038674;28;19921;-71
2021/11/02 00:39:28;;;;;;;;;;;8.70;99.40;;;;;;5006332;28;20039;-71
2021/11/02 00:41:54;;;;;;;;;;;8.70;99.50;;;;;;5038541;28;20295;-71
2021/11/02 00:44:21;;;;;;;;;;;8.60;99.50;;;;;;5023442;28;20564;-71
2021/11/02 00:46:47;;;;;;;;;;;8.60;99.60;;;;;;5038465;28;19928;-71
2021/11/02 00:49:21;;;;;;;;;;;8.60;99.60;;;;;;5038382;28;19928;-71
2021/11/02 00:51:46;;;;;;;;;;;8.60;99.60;;;;;;5037066;28;20884;-71
2021/11/02 00:54:12;;;;;;;;;;;8.60;99.60;;;;;;5021819;28;20000;-71
2021/11/02 00:56:38;;;;;;;;;;;8.60;99.50;;;;;;5036764;28;20292;-71
2021/11/02 00:59:04;;;;;;;;;;;8.50;99.50;;;;;;5038358;28;20227;-71
2021/11/02 01:01:29;;;;;;;;;;;8.50;99.60;;;;;;5017428;28;19919;-71
2021/11/02 01:03:54;;;;;;;;;;;8.40;99.60;;;;;;5005886;28;19935;-71
2021/11/02 01:06:20;;;;;;;;;;;8.40;99.60;;;;;;5037928;28;20325;-71
2021/11/02 01:08:45;;;;;;;;;;;8.40;99.70;;;;;;5038729;28;20455;-69
2021/11/02 01:11:11;;;;;;;;;;;8.40;99.80;;;;;;5021025;28;20031;-69
2021/11/02 01:13:36;;;;;;;;;;;8.30;99.70;;;;;;5006515;28;20011;-72
2021/11/02 01:16:02;;;;;;;;;;;8.30;99.70;;;;;;5035531;28;19952;-70
2021/11/02 01:18:27;;;;;;;;;;;8.30;99.80;;;;;;5038605;28;19917;-70
2021/11/02 01:20:53;;;;;;;;;;;8.30;99.90;;;;;;5038899;28;19963;-71
2021/11/02 01:23:19;;;;;;;;;;;8.30;99.90;;;;;;5038626;28;19956;-71
2021/11/02 01:25:44;;;;;;;;;;;8.30;99.90;;;;;;5019028;28;20365;-71
2021/11/02 01:28:10;;;;;;;;;;;8.30;99.90;;;;;;5020724;28;20719;-71
2021/11/02 01:30:35;;;;;;;;;;;8.40;99.90;;;;;;5038170;28;19917;-70
2021/11/02 01:33:01;;;;;;;;;;;8.40;99.90;;;;;;5033047;28;20478;-70
2021/11/02 01:35:27;;;;;;;;;;;8.30;99.90;;;;;;5038605;28;19917;-70
2021/11/02 01:37:52;;;;;;;;;;;8.30;99.90;;;;;;5005843;28;20070;-70
2021/11/02 01:40:18;;;;;;;;;;;8.30;99.90;;;;;;5020963;28;19912;-70
2021/11/02 01:42:44;;;;;;;;;;;8.30;99.90;;;;;;5038676;28;19919;-70
2021/11/02 01:45:11;;;;;;;;;;;8.30;99.90;;;;;;5036454;28;19924;-70
2021/11/02 01:47:40;;;;;;;;;;;8.30;99.90;;;;;;5006897;28;20299;-70
2021/11/02 01:50:06;;;;;;;;;;;8.30;99.90;;;;;;5035739;28;19966;-70
2021/11/02 01:52:33;;;;;;;;;;;8.30;99.90;;;;;;5037884;28;19917;-70
2021/11/02 01:54:59;;;;;;;;;;;8.30;99.90;;;;;;5019914;28;21036;-70
2021/11/02 01:57:24;;;;;;;;;;;8.20;99.90;;;;;;5020036;28;19917;-70
2021/11/02 01:59:51;;;;;;;;;;;8.20;99.90;;;;;;5020096;28;20063;-70
2021/11/02 02:02:31;;;;;;;;;;;8.20;99.90;;;;;;5035068;28;19992;-70
2021/11/02 02:04:56;;;;;;;;;;;8.20;99.90;;;;;;5036209;28;19999;-70
2021/11/02 02:07:49;;;;;;;;;;;8.20;99.90;;;;;;5037509;28;20354;-70
2021/11/02 02:10:23;;;;;;;;;;;8.10;99.90;;;;;;5037343;28;19923;-70
2021/11/02 02:12:57;;;;;;;;;;;8.10;99.90;;;;;;5038008;28;19989;-70
2021/11/02 02:15:29;;;;;;;;;;;8.10;99.90;;;;;;5034336;28;20318;-70
2021/11/02 02:17:56;;;;;;;;;;;8.10;99.90;;;;;;5037716;28;19920;-70
2021/11/02 02:20:45;;;;;;;;;;;8.10;99.90;;;;;;5036911;28;19925;-70
2021/11/02 02:23:33;;;;;;;;;;;8.00;99.90;;;;;;5035415;28;19952;-70
2021/11/02 02:26:07;;;;;;;;;;;7.90;99.90;;;;;;5037957;28;19917;-71
2021/11/02 02:28:37;;;;;;;;;;;7.90;99.90;;;;;;5034512;28;19970;-70
2021/11/02 02:31:05;;;;;;;;;;;7.90;99.90;;;;;;5036270;28;19916;-71
2021/11/02 02:33:35;;;;;;;;;;;7.90;99.90;;;;;;5037499;28;19964;-71
2021/11/02 02:36:01;;;;;;;;;;;7.90;99.90;;;;;;5034955;28;19959;-70
2021/11/02 02:38:27;;;;;;;;;;;7.90;99.90;;;;;;5035783;28;20681;-70
2021/11/02 02:40:52;;;;;;;;;;;8.00;99.90;;;;;;5036505;28;19917;-70
2021/11/02 02:43:19;;;;;;;;;;;8.00;99.90;;;;;;5017717;28;19958;-70
2021/11/02 02:45:45;;;;;;;;;;;8.00;99.90;;;;;;5019343;28;20439;-70
2021/11/02 02:48:12;;;;;;;;;;;8.00;99.90;;;;;;5037078;28;20652;-70
2021/11/02 02:50:39;;;;;;;;;;;8.00;99.90;;;;;;5037607;28;19912;-70
2021/11/02 02:53:06;;;;;;;;;;;8.00;99.90;;;;;;5034943;28;19996;-70
2021/11/02 02:55:32;;;;;;;;;;;7.90;99.90;;;;;;5003899;28;20368;-70
2021/11/02 02:57:58;;;;;;;;;;;7.90;99.90;;;;;;5019047;28;20810;-70
2021/11/02 03:00:24;;;;;;;;;;;7.80;99.90;;;;;;5018382;28;19921;-70
2021/11/02 03:02:50;;;;;;;;;;;7.80;99.90;;;;;;5034757;28;19924;-70
2021/11/02 03:05:18;;;;;;;;;;;7.80;99.90;;;;;;5036145;28;19919;-70
2021/11/02 03:07:43;;;;;;;;;;;7.80;99.90;;;;;;5038463;28;19916;-70
2021/11/02 03:10:09;;;;;;;;;;;7.80;99.90;;;;;;5034801;28;19921;-70
2021/11/02 03:12:36;;;;;;;;;;;7.70;99.90;;;;;;5036121;28;19949;-70
2021/11/02 03:17:55;;;;;;;;;;;7.70;99.90;;;;;;5036112;28;20071;-70
2021/11/02 03:47:56;;;;;;;;;;;7.80;99.90;;;;;;5040088;28;19967;-70
2021/11/02 03:56:00;;;;;;;;;;;7.60;99.90;;;;;;5037930;28;19974;-71
2021/11/02 03:58:45;;;;;;;;;;;7.50;99.90;;;;;;5040854;28;19913;-71
2021/11/02 04:31:18;;;;;;;;;;;7.40;99.90;;;;;;5038244;28;19995;-70
2021/11/02 04:37:22;;;;;;;;;;;7.30;99.90;;;;;;5038204;28;19923;-70
2021/11/02 05:06:37;;;;;;;;;;;7.30;99.90;;;;;;5039828;28;20290;-72
2021/11/02 05:07:06;;;;;;;;;;;7.30;99.90;;;;;;5035381;28;20034;-71
2021/11/02 05:46:41;;;;;;;;;;;7.20;99.90;;;;;;5020365;28;19947;-71
2021/11/02 05:58:39;;;;;;;;;;;7.10;99.90;;;;;;5016174;28;21094;-71
2021/11/02 06:01:10;;;;;;;;;;;7.20;99.90;;;;;;5036218;28;19928;-71
2021/11/02 06:06:07;;;;;;;;;;;7.20;99.90;;;;;;5036462;28;20003;-71
2021/11/02 06:11:31;;;;;;;;;;;7.10;99.90;;;;;;5036612;28;19923;-71
2021/11/02 06:28:06;;;;;;;;;;;7.00;99.90;;;;;;5038408;28;19959;-71
2021/11/02 06:30:44;;;;;;;;;;;7.00;99.90;;;;;;5035359;28;20286;-71
2021/11/02 06:52:58;;;;;;;;;;;7.20;99.90;;;;;;5036964;28;20403;-71
2021/11/02 07:00:54;;;;;;;;;;;7.30;99.90;;;;;;5038173;28;19928;-70
2021/11/02 07:17:42;;;;;;;;;;;7.60;99.90;;;;;;5033685;28;19923;-69
2021/11/02 08:48:05;;;;;;;;;;;9.90;99.90;;;;;;5038953;28;19920;-71
2021/11/02 08:50:36;;;;;;;;;;;10.00;99.90;;;;;;5021372;28;20272;-70
2021/11/02 08:53:03;;;;;;;;;;;10.00;99.90;;;;;;5037987;28;20002;-70
2021/11/02 08:55:28;;;;;;;;;;;10.10;99.90;;;;;;5037836;28;20043;-71
2021/11/02 08:57:56;;;;;;;;;;;10.10;99.90;;;;;;5038362;28;20011;-69
2021/11/02 09:00:22;;;;;;;;;;;10.10;99.90;;;;;;5036328;28;19921;-69
2021/11/02 09:02:49;;;;;;;;;;;10.20;99.90;;;;;;5038591;28;19912;-70
2021/11/02 09:05:18;;;;;;;;;;;10.20;99.70;;;;;;5036768;28;19921;-70
2021/11/02 09:07:44;;;;;;;;;;;10.20;99.70;;;;;;5038587;28;19979;-71
2021/11/02 09:10:14;;;;;;;;;;;10.30;99.80;;;;;;5019009;28;19925;-71
2021/11/02 09:12:41;;;;;;;;;;;10.30;99.70;;;;;;5037301;28;19921;-71
2021/11/02 09:15:07;;;;;;;;;;;10.40;99.60;;;;;;5020520;28;20328;-72
2021/11/02 09:17:33;;;;;;;;;;;10.50;99.60;;;;;;5018874;28;19916;-69
2021/11/02 09:20:02;;;;;;;;;;;10.60;99.50;;;;;;5037507;28;19917;-70
2021/11/02 09:22:29;;;;;;;;;;;10.70;99.40;;;;;;5021601;28;20232;-70
2021/11/02 09:24:56;;;;;;;;;;;10.80;99.40;;;;;;5036804;28;19913;-70
2021/11/02 09:27:21;;;;;;;;;;;10.80;99.30;;;;;;5037719;28;20637;-70
2021/11/02 09:29:47;;;;;;;;;;;11.00;99.20;;;;;;5037471;28;19928;-70
2021/11/02 09:32:13;;;;;;;;;;;11.00;99.00;;;;;;5037223;28;20526;-70
2021/11/02 09:34:38;;;;;;;;;;;11.10;98.80;;;;;;5037004;28;19917;-69
2021/11/02 09:37:18;;;;;;;;;;;11.20;98.80;;;;;;5020658;28;19920;-69
2021/11/02 09:39:45;;;;;;;;;;;11.20;98.50;;;;;;5038510;28;19927;-69
2021/11/02 09:42:13;;;;;;;;;;;11.30;98.30;;;;;;5035354;28;19913;-69
2021/11/02 09:44:52;;;;;;;;;;;11.30;98.20;;;;;;5037367;28;19917;-69
2021/11/02 09:47:36;;;;;;;;;;;11.40;98.00;;;;;;5034631;28;20600;-70
2021/11/02 09:50:07;;;;;;;;;;;11.40;97.80;;;;;;5035238;28;19913;-69
2021/11/02 09:52:51;;;;;;;;;;;11.40;97.90;;;;;;5036859;28;20294;-70
2021/11/02 09:55:35;;;;;;;;;;;11.40;97.80;;;;;;5037218;28;19917;-69
2021/11/02 09:58:06;;;;;;;;;;;11.40;97.80;;;;;;5038190;28;19921;-69
2021/11/02 10:00:45;;;;;;;;;;;11.40;97.50;;;;;;5038164;28;19917;-69
2021/11/02 10:03:28;;;;;;;;;;;11.50;97.50;;;;;;5036763;28;20007;-68
2021/11/02 10:05:56;;;;;;;;;;;11.50;97.50;;;;;;5019048;28;19939;-72
2021/11/02 10:08:37;;;;;;;;;;;11.60;97.00;;;;;;5036668;28;19920;-70
2021/11/02 10:11:26;;;;;;;;;;;11.60;97.40;;;;;;5036966;28;19913;-71
2021/11/02 10:13:59;;;;;;;;;;;11.70;97.30;;;;;;5026907;28;20012;-71
2021/11/02 10:16:34;;;;;;;;;;;11.80;97.10;;;;;;5034887;28;19936;-71
2021/11/02 10:19:12;;;;;;;;;;;11.80;97.10;;;;;;5036426;28;19917;-71
2021/11/02 10:21:56;;;;;;;;;;;11.90;96.80;;;;;;5018761;28;19920;-70
2021/11/02 10:24:33;;;;;;;;;;;11.90;96.70;;;;;;5037536;28;19920;-67
2021/11/02 10:27:16;;;;;;;;;;;11.90;96.40;;;;;;5036930;28;19948;-67
2021/11/02 10:29:55;;;;;;;;;;;12.00;96.30;;;;;;5037589;28;19913;-67
2021/11/02 10:32:26;;;;;;;;;;;12.00;96.10;;;;;;5035178;28;19920;-67
2021/11/02 10:35:00;;;;;;;;;;;12.10;96.10;;;;;;5037776;28;19913;-67
2021/11/02 10:37:52;;;;;;;;;;;12.10;96.00;;;;;;5035895;28;19920;-67
2021/11/02 10:40:24;;;;;;;;;;;12.20;95.80;;;;;;5033395;28;20356;-67
2021/11/02 10:43:01;;;;;;;;;;;12.30;95.80;;;;;;5037699;28;19913;-67
2021/11/02 10:45:27;;;;;;;;;;;12.30;95.80;;;;;;5036535;28;19913;-67
2021/11/02 10:47:53;;;;;;;;;;;12.40;95.40;;;;;;5020614;28;20470;-68
2021/11/02 10:50:21;;;;;;;;;;;12.50;95.40;;;;;;5036870;28;20007;-68
2021/11/02 10:52:47;;;;;;;;;;;12.50;95.20;;;;;;5036027;28;19964;-67
2021/11/02 10:55:33;;;;;;;;;;;12.50;94.70;;;;;;5035756;28;20339;-67
2021/11/02 10:58:01;;;;;;;;;;;12.60;95.20;;;;;;5037328;28;19920;-68
2021/11/02 11:00:27;;;;;;;;;;;12.50;95.10;;;;;;5037516;28;20372;-68
2021/11/02 11:02:55;;;;;;;;;;;12.50;94.90;;;;;;5075442;22;19939;-62
2021/11/02 11:05:25;;;;;;;;;;;12.40;94.60;;;;;;5062057;28;19912;-62
2021/11/02 11:07:51;;;;;;;;;;;12.40;94.70;;;;;;5062424;28;19912;-63
2021/11/02 11:10:17;;;;;;;;;;;12.30;94.90;;;;;;5062250;28;20015;-62
2021/11/02 11:12:55;;;;;;;;;;;12.30;94.90;;;;;;5063998;28;20070;-63
2021/11/02 11:15:21;;;;;;;;;;;12.30;94.60;;;;;;5062226;28;20006;-62
2021/11/02 11:18:01;;;;;;;;;;;12.20;94.60;;;;;;5063793;28;19998;-62
2021/11/02 11:20:27;;;;;;;;;;;12.20;94.90;;;;;;5063848;28;19917;-63
2021/11/02 11:22:53;;;;;;;;;;;12.30;94.80;;;;;;5064567;28;19994;-63
2021/11/02 11:25:37;;;;;;;;;;;12.40;94.80;;;;;;5044059;28;19919;-63
2021/11/02 11:28:03;;;;;;;;;;;12.40;94.80;;;;;;5046359;28;19921;-63
2021/11/02 11:30:30;;;;;;;;;;;12.50;94.90;;;;;;5061226;28;19966;-63
2021/11/02 11:32:56;;;;;;;;;;;12.50;94.80;;;;;;5062091;28;19919;-63
2021/11/02 11:35:21;;;;;;;;;;;12.50;94.60;;;;;;5063892;28;20544;-63
2021/11/02 11:37:48;;;;;;;;;;;12.50;94.40;;;;;;5064751;28;20138;-63
2021/11/02 11:40:14;;;;;;;;;;;12.50;94.60;;;;;;5063793;28;20351;-63
2021/11/02 11:42:42;;;;;;;;;;;12.60;94.50;;;;;;5064062;28;19913;-63
2021/11/02 11:45:19;;;;;;;;;;;12.60;94.20;;;;;;5062344;28;20007;-63
2021/11/02 11:47:44;;;;;;;;;;;12.60;94.10;;;;;;5063187;28;19913;-63
2021/11/02 11:50:11;;;;;;;;;;;12.60;94.30;;;;;;5067409;28;19912;-63
2021/11/02 11:52:43;;;;;;;;;;;12.70;94.20;;;;;;5067914;28;19916;-63
2021/11/02 11:55:09;;;;;;;;;;;12.80;93.90;;;;;;5065751;28;19913;-63
2021/11/02 11:57:37;;;;;;;;;;;12.80;93.70;;;;;;5067299;28;19920;-63
2021/11/02 12:00:06;;;;;;;;;;;12.90;93.50;;;;;;5047394;28;19931;-63
2021/11/02 12:02:32;;;;;;;;;;;12.90;93.80;;;;;;5068820;28;19927;-63
2021/11/02 12:05:00;;;;;;;;;;;12.90;93.50;;;;;;5065638;28;19923;-63
2021/11/02 12:07:28;;;;;;;;;;;12.90;93.70;;;;;;5064834;28;20299;-63
2021/11/02 12:09:54;;;;;;;;;;;13.00;93.70;;;;;;5064611;28;19958;-64
2021/11/02 12:12:22;;;;;;;;;;;13.00;93.50;;;;;;5065543;28;19959;-63
2021/11/02 12:14:55;;;;;;;;;;;13.00;93.40;;;;;;5063927;28;20314;-63
2021/11/02 12:17:21;;;;;;;;;;;13.00;93.40;;;;;;5060791;28;19971;-63
2021/11/02 12:20:00;;;;;;;;;;;13.00;93.50;;;;;;5064306;28;20630;-64
2021/11/02 12:22:39;;;;;;;;;;;13.10;93.20;;;;;;5065524;28;19924;-63
2021/11/02 12:25:07;;;;;;;;;;;13.10;92.80;;;;;;5065331;28;20005;-63
2021/11/02 12:27:40;;;;;;;;;;;13.10;92.60;;;;;;5066413;28;19924;-63
2021/11/02 12:30:06;;;;;;;;;;;13.10;92.80;;;;;;5063858;28;20007;-64
2021/11/02 12:32:32;;;;;;;;;;;13.20;92.90;;;;;;5066157;28;20384;-63
2021/11/02 12:35:08;;;;;;;;;;;13.30;92.40;;;;;;5064787;28;20005;-63
2021/11/02 12:37:50;;;;;;;;;;;13.30;92.60;;;;;;5064950;28;19939;-62
2021/11/02 12:40:20;;;;;;;;;;;13.40;92.60;;;;;;5045607;28;19921;-62
2021/11/02 12:42:45;;;;;;;;;;;13.40;92.00;;;;;;5063136;28;20297;-63
2021/11/02 12:45:11;;;;;;;;;;;13.30;91.50;;;;;;5065287;28;19912;-63
2021/11/02 12:47:38;;;;;;;;;;;13.30;91.20;;;;;;5063184;28;19920;-63
2021/11/02 12:50:05;;;;;;;;;;;13.30;90.90;;;;;;5065288;28;20026;-63
2021/11/02 12:52:35;;;;;;;;;;;13.30;91.20;;;;;;5067142;28;19916;-63
2021/11/02 12:55:00;;;;;;;;;;;13.40;91.40;;;;;;5066480;28;20007;-63
2021/11/02 12:57:35;;;;;;;;;;;13.50;91.20;;;;;;5066013;28;20408;-63
2021/11/02 13:00:03;;;;;;;;;;;13.50;91.20;;;;;;5065047;28;19912;-63
2021/11/02 13:02:34;;;;;;;;;;;13.40;91.20;;;;;;5063644;28;19965;-63
2021/11/02 13:05:04;;;;;;;;;;;13.40;91.30;;;;;;5062917;28;20427;-63
2021/11/02 13:07:37;;;;;;;;;;;13.40;91.50;;;;;;5067033;28;20265;-63
2021/11/02 13:10:10;;;;;;;;;;;13.30;91.30;;;;;;5045153;28;21423;-63
2021/11/02 13:12:36;;;;;;;;;;;13.20;91.60;;;;;;5067209;28;19920;-63
2021/11/02 13:15:03;;;;;;;;;;;13.10;91.30;;;;;;5065582;28;19917;-63
2021/11/02 13:17:36;;;;;;;;;;;13.10;91.50;;;;;;5064368;28;20249;-63
2021/11/02 13:20:02;;;;;;;;;;;13.00;91.30;;;;;;5064503;28;20327;-63
2021/11/02 13:22:28;;;;;;;;;;;12.90;91.50;;;;;;5063404;28;19925;-63
2021/11/02 13:24:58;;;;;;;;;;;12.80;91.50;;;;;;5063906;28;19973;-63
2021/11/02 13:27:37;;;;;;;;;;;12.80;91.60;;;;;;5065127;28;20341;-63
2021/11/02 13:30:22;;;;;;;;;;;12.80;91.60;;;;;;5061490;28;19966;-63
2021/11/02 13:32:58;;;;;;;;;;;12.70;91.80;;;;;;5065539;28;19923;-63
2021/11/02 13:35:56;;;;;;;;;;;12.60;91.90;;;;;;5064246;28;19927;-63
2021/11/02 13:38:32;;;;;;;;;;;12.60;91.90;;;;;;5000956;28;20023;-63
2021/11/02 13:41:09;;;;;;;;;;;12.50;92.20;;;;;;5064440;28;20356;-63
2021/11/02 13:43:39;;;;;;;;;;;12.40;92.30;;;;;;5066227;28;19920;-63
2021/11/02 13:46:06;;;;;;;;;;;12.40;92.20;;;;;;5062171;28;19913;-63
2021/11/02 13:48:33;;;;;;;;;;;12.40;92.30;;;;;;5064459;28;19928;-63
2021/11/02 13:50:59;;;;;;;;;;;12.40;92.40;;;;;;5064162;28;20339;-63
2021/11/02 13:53:24;;;;;;;;;;;12.40;92.60;;;;;;5065819;28;19916;-63
2021/11/02 13:55:50;;;;;;;;;;;12.40;92.70;;;;;;5058141;28;19966;-63
2021/11/02 13:58:16;;;;;;;;;;;12.40;92.60;;;;;;5046104;28;20023;-63
2021/11/02 14:00:42;;;;;;;;;;;12.30;92.70;;;;;;5059074;28;19940;-64
2021/11/02 14:03:13;;;;;;;;;;;12.30;92.80;;;;;;5062738;28;19917;-64
2021/11/02 14:05:41;;;;;;;;;;;12.30;92.80;;;;;;5061423;28;20110;-64
2021/11/02 14:08:06;;;;;;;;;;;12.20;92.80;;;;;;5064744;28;20369;-64
2021/11/02 14:10:32;;;;;;;;;;;12.20;92.90;;;;;;5060867;28;19916;-64
2021/11/02 14:12:57;;;;;;;;;;;12.30;93.10;;;;;;5062875;28;19924;-64
2021/11/02 14:15:26;;;;;;;;;;;12.30;93.00;;;;;;5060108;28;20288;-64
2021/11/02 14:17:51;;;;;;;;;;;12.30;93.10;;;;;;5062891;28;19939;-64
2021/11/02 14:20:32;;;;;;;;;;;12.30;93.10;;;;;;5045293;28;19916;-64
2021/11/02 14:22:58;;;;;;;;;;;12.30;93.20;;;;;;5061701;28;20288;-64
2021/11/02 14:25:34;;;;;;;;;;;12.40;93.20;;;;;;5058541;28;19921;-64
2021/11/02 14:28:00;;;;;;;;;;;12.40;93.20;;;;;;5062052;28;19917;-64
2021/11/02 14:30:31;;;;;;;;;;;12.40;93.20;;;;;;5043705;28;19978;-64
2021/11/02 14:33:00;;;;;;;;;;;12.50;93.10;;;;;;5060976;28;20406;-64
2021/11/02 14:35:45;;;;;;;;;;;12.50;93.00;;;;;;5061690;28;20003;-63
2021/11/02 14:38:42;;;;;;;;;;;12.50;92.90;;;;;;5061179;28;19916;-63
2021/11/02 14:41:34;;;;;;;;;;;12.50;92.90;;;;;;5059807;28;19948;-63
2021/11/02 14:44:17;;;;;;;;;;;12.40;92.70;;;;;;5060209;28;19916;-63
2021/11/02 14:46:43;;;;;;;;;;;12.40;92.60;;;;;;5060404;28;19917;-63
2021/11/02 14:49:09;;;;;;;;;;;12.30;92.80;;;;;;5060621;28;20501;-63
2021/11/02 14:51:34;;;;;;;;;;;12.30;92.60;;;;;;5059997;28;19932;-64
2021/11/02 14:54:29;;;;;;;;;;;12.20;92.80;;;;;;5065035;28;19936;-63
2021/11/02 14:56:57;;;;;;;;;;;12.10;93.00;;;;;;5045673;28;20426;-63
2021/11/02 14:59:22;;;;;;;;;;;12.20;93.20;;;;;;5064839;28;19928;-64
2021/11/02 15:02:05;;;;;;;;;;;12.10;93.30;;;;;;5061374;28;19916;-64
2021/11/02 15:04:31;;;;;;;;;;;12.10;93.30;;;;;;5038216;28;20369;-63
2021/11/02 15:07:01;;;;;;;;;;;12.00;93.40;;;;;;5059495;28;19992;-64
2021/11/02 15:09:28;;;;;;;;;;;12.00;93.60;;;;;;5063062;28;19912;-64
2021/11/02 15:11:54;;;;;;;;;;;11.90;93.70;;;;;;5063180;28;19913;-64
2021/11/02 15:14:28;;;;;;;;;;;11.90;93.80;;;;;;5043126;28;19917;-64
2021/11/02 15:16:54;;;;;;;;;;;11.90;93.90;;;;;;5062895;28;20373;-64
2021/11/02 15:19:24;;;;;;;;;;;11.80;94.00;;;;;;5062586;28;19916;-63
2021/11/02 15:21:57;;;;;;;;;;;11.80;94.00;;;;;;5044290;28;19913;-63
2021/11/02 15:24:28;;;;;;;;;;;11.80;94.10;;;;;;5061209;28;20033;-63
2021/11/02 15:26:53;;;;;;;;;;;11.80;94.10;;;;;;5062469;28;19931;-63
2021/11/02 15:29:20;;;;;;;;;;;11.80;94.10;;;;;;5062104;28;19917;-63
2021/11/02 15:31:55;;;;;;;;;;;11.80;94.20;;;;;;5061065;28;19923;-63
2021/11/02 15:34:21;;;;;;;;;;;11.80;94.20;;;;;;5063531;28;20330;-63
2021/11/02 15:36:46;;;;;;;;;;;11.80;94.30;;;;;;5063024;28;20261;-63
2021/11/02 15:39:12;;;;;;;;;;;11.80;94.30;;;;;;5059799;28;19916;-63
2021/11/02 15:41:38;;;;;;;;;;;11.80;94.30;;;;;;5062737;28;20495;-63
2021/11/02 15:44:05;;;;;;;;;;;11.70;94.30;;;;;;5062062;28;19927;-63
2021/11/02 15:46:32;;;;;;;;;;;11.70;94.40;;;;;;5060767;28;19966;-62
2021/11/02 15:48:58;;;;;;;;;;;11.70;94.40;;;;;;5062464;28;19993;-62
2021/11/02 15:51:25;;;;;;;;;;;11.70;94.40;;;;;;5059998;28;19920;-63
2021/11/02 15:53:51;;;;;;;;;;;11.60;94.50;;;;;;5063348;28;19919;-63
2021/11/02 15:56:22;;;;;;;;;;;11.60;94.60;;;;;;5061577;28;20254;-63
2021/11/02 15:58:54;;;;;;;;;;;11.60;94.60;;;;;;5064063;28;19916;-63
2021/11/02 16:01:53;;;;;;;;;;;11.50;94.60;;;;;;5045675;28;19920;-63
2021/11/02 16:04:23;;;;;;;;;;;11.50;94.80;;;;;;5039230;28;20292;-63
2021/11/02 16:07:08;;;;;;;;;;;11.50;94.80;;;;;;5061034;28;19912;-63
2021/11/02 16:09:46;;;;;;;;;;;11.50;94.80;;;;;;5045078;28;20361;-63
2021/11/02 16:12:16;;;;;;;;;;;11.50;94.80;;;;;;5063441;28;20277;-63
2021/11/02 16:14:52;;;;;;;;;;;11.50;94.90;;;;;;5062873;28;19916;-63
2021/11/02 16:17:18;;;;;;;;;;;11.40;94.90;;;;;;5064401;28;19928;-63
2021/11/02 16:19:43;;;;;;;;;;;11.40;95.00;;;;;;5061958;28;19920;-63
2021/11/02 16:22:09;;;;;;;;;;;11.40;95.10;;;;;;5062610;28;20268;-61
2021/11/02 16:24:36;;;;;;;;;;;11.30;95.20;;;;;;5063066;28;20011;-63
2021/11/02 16:27:20;;;;;;;;;;;11.30;95.20;;;;;;5060672;28;20257;-63
2021/11/02 16:29:46;;;;;;;;;;;11.30;95.20;;;;;;5064088;28;19951;-64
2021/11/02 16:32:22;;;;;;;;;;;11.20;95.20;;;;;;5044584;28;19931;-64
2021/11/02 16:34:47;;;;;;;;;;;11.20;95.30;;;;;;5065517;28;20341;-64
2021/11/02 16:37:27;;;;;;;;;;;11.10;95.30;;;;;;5060867;28;19926;-64
2021/11/02 16:40:12;;;;;;;;;;;11.10;95.60;;;;;;5046175;28;20384;-63
2021/11/02 16:42:38;;;;;;;;;;;11.10;95.50;;;;;;5067138;28;19966;-63
2021/11/02 16:45:10;;;;;;;;;;;11.00;95.50;;;;;;5046511;28;19916;-62
2021/11/02 16:47:36;;;;;;;;;;;11.00;95.50;;;;;;5065774;28;19948;-65
2021/11/02 16:50:04;;;;;;;;;;;10.90;95.50;;;;;;5065320;28;19955;-63
2021/11/02 16:52:30;;;;;;;;;;;10.80;95.60;;;;;;5066351;28;19913;-64
2021/11/02 16:55:09;;;;;;;;;;;10.70;95.70;;;;;;5047375;28;20300;-62
2021/11/02 16:57:34;;;;;;;;;;;10.70;95.80;;;;;;5064340;28;19932;-62
2021/11/02 17:00:05;;;;;;;;;;;10.60;95.90;;;;;;5065616;28;19986;-63
2021/11/02 17:02:56;;;;;;;;;;;10.60;96.00;;;;;;5077750;22;19916;-63
2021/11/02 17:05:23;;;;;;;;;;;10.50;96.10;;;;;;4987854;28;19925;-63
2021/11/02 17:07:48;;;;;;;;;;;10.50;96.20;;;;;;4990601;28;19913;-63
2021/11/02 17:10:16;;;;;;;;;;;10.40;96.20;;;;;;4970361;28;20389;-63
2021/11/02 17:12:44;;;;;;;;;;;10.30;96.30;;;;;;4988223;28;19984;-63
2021/11/02 17:15:10;;;;;;;;;;;10.20;96.30;;;;;;4985166;28;19921;-62
2021/11/02 17:17:41;;;;;;;;;;;10.20;96.50;;;;;;4988603;28;19922;-62
2021/11/02 17:20:10;;;;;;;;;;;10.10;96.50;;;;;;4985540;28;19921;-63
2021/11/02 17:22:38;;;;;;;;;;;10.10;96.60;;;;;;4988179;28;20394;-62
2021/11/02 17:25:03;;;;;;;;;;;10.10;96.70;;;;;;4983221;28;19922;-66
2021/11/02 17:27:29;;;;;;;;;;;10.10;96.80;;;;;;4987537;28;19920;-62
2021/11/02 17:29:54;;;;;;;;;;;10.00;96.80;;;;;;4986932;28;19914;-66
2021/11/02 17:32:20;;;;;;;;;;;9.90;96.90;;;;;;4985792;28;19993;-62
2021/11/02 17:34:46;;;;;;;;;;;9.90;97.00;;;;;;4986362;28;19995;-63
2021/11/02 17:37:11;;;;;;;;;;;9.80;97.00;;;;;;4983948;28;19917;-62
2021/11/02 17:39:37;;;;;;;;;;;9.80;97.00;;;;;;4969681;28;20363;-65
2021/11/02 17:42:04;;;;;;;;;;;9.80;97.10;;;;;;4984190;28;20046;-63
2021/11/02 17:44:31;;;;;;;;;;;9.70;97.10;;;;;;4986343;28;19914;-62
2021/11/02 17:46:57;;;;;;;;;;;9.60;97.20;;;;;;4968341;28;19921;-62
2021/11/02 17:49:23;;;;;;;;;;;9.60;97.30;;;;;;4985774;28;19922;-61
2021/11/02 17:51:49;;;;;;;;;;;9.60;97.40;;;;;;4986358;28;20277;-65
2021/11/02 17:54:15;;;;;;;;;;;9.60;97.50;;;;;;4987060;28;19917;-61
2021/11/02 17:56:42;;;;;;;;;;;9.50;97.50;;;;;;4985957;28;19925;-64
2021/11/02 17:59:08;;;;;;;;;;;9.50;97.50;;;;;;4985620;28;20290;-63
2021/11/02 18:01:34;;;;;;;;;;;9.50;97.70;;;;;;4985319;28;19914;-64
2021/11/02 18:04:01;;;;;;;;;;;9.50;97.70;;;;;;4971754;28;19921;-62
2021/11/02 18:06:27;;;;;;;;;;;9.40;97.80;;;;;;4986207;28;20331;-61
2021/11/02 18:08:52;;;;;;;;;;;9.40;97.80;;;;;;4969405;28;20111;-63
2021/11/02 18:11:18;;;;;;;;;;;9.40;97.90;;;;;;4986114;28;20529;-65
2021/11/02 18:13:44;;;;;;;;;;;9.30;98.00;;;;;;4986936;28;19914;-62
2021/11/02 18:16:10;;;;;;;;;;;9.30;98.00;;;;;;4983626;28;19997;-62
2021/11/02 18:18:39;;;;;;;;;;;9.30;98.00;;;;;;4987590;28;20309;-62
2021/11/02 18:21:08;;;;;;;;;;;9.20;98.00;;;;;;4984275;28;19922;-61
2021/11/02 18:23:34;;;;;;;;;;;9.20;98.10;;;;;;4970229;28;19925;-62
2021/11/02 18:26:00;;;;;;;;;;;9.10;98.10;;;;;;4986252;28;19914;-62
2021/11/02 18:28:26;;;;;;;;;;;9.10;98.20;;;;;;4984975;28;20330;-63
2021/11/02 18:30:51;;;;;;;;;;;9.10;98.20;;;;;;4985162;28;19925;-63
2021/11/02 18:33:17;;;;;;;;;;;9.10;98.20;;;;;;4984997;28;19918;-62
2021/11/02 18:35:43;;;;;;;;;;;9.10;98.20;;;;;;4985401;28;19921;-67
2021/11/02 18:38:08;;;;;;;;;;;9.10;98.20;;;;;;4983199;28;19929;-62
2021/11/02 18:40:36;;;;;;;;;;;9.00;98.10;;;;;;4984219;28;19918;-62
2021/11/02 18:43:02;;;;;;;;;;;9.00;98.10;;;;;;4986893;28;19925;-67
2021/11/02 18:45:27;;;;;;;;;;;8.90;98.20;;;;;;4987185;28;19922;-62
2021/11/02 18:47:53;;;;;;;;;;;8.90;98.20;;;;;;4967950;28;19924;-65
2021/11/02 18:50:21;;;;;;;;;;;8.90;98.30;;;;;;4981500;28;19925;-65
2021/11/02 18:52:47;;;;;;;;;;;8.90;98.30;;;;;;4985263;28;19918;-62
2021/11/02 18:55:12;;;;;;;;;;;8.80;98.30;;;;;;4985982;28;19933;-61
2021/11/02 18:57:38;;;;;;;;;;;8.70;98.40;;;;;;4986856;28;19925;-63
2021/11/02 19:00:05;;;;;;;;;;;8.70;98.40;;;;;;4986188;28;19914;-67
2021/11/02 19:02:31;;;;;;;;;;;8.70;98.50;;;;;;4968863;28;19921;-63
2021/11/02 19:04:57;;;;;;;;;;;8.60;98.80;;;;;;4987215;28;19914;-63
2021/11/02 19:07:22;;;;;;;;;;;8.50;98.60;;;;;;4984854;28;20377;-62
2021/11/02 19:09:48;;;;;;;;;;;8.50;98.70;;;;;;4986623;28;19914;-63
2021/11/02 19:12:15;;;;;;;;;;;8.60;98.80;;;;;;4985724;28;20305;-62
2021/11/02 19:14:41;;;;;;;;;;;8.60;98.90;;;;;;4986190;28;19913;-64
2021/11/02 19:17:07;;;;;;;;;;;8.60;98.90;;;;;;4984622;28;20366;-63
2021/11/02 19:19:33;;;;;;;;;;;8.60;98.80;;;;;;4985479;28;19933;-62
2021/11/02 19:21:58;;;;;;;;;;;8.50;98.80;;;;;;4985182;28;19957;-64
2021/11/02 19:24:23;;;;;;;;;;;8.50;98.90;;;;;;4983275;28;20014;-62